createdAt,value
2019-03-24T00:00:42.855Z,1023.99
2019-03-24T00:01:42.781Z,1023.95
2019-03-24T00:02:42.695Z,1023.94
2019-03-24T00:03:42.605Z,1023.93
2019-03-24T00:04:42.532Z,1023.97
2019-03-24T00:05:42.445Z,1023.96
2019-03-24T00:06:42.356Z,1023.96
2019-03-24T00:07:42.282Z,1023.96
2019-03-24T00:08:42.195Z,1023.95
2019-03-24T00:09:42.106Z,1024.00
2019-03-24T00:10:42.041Z,1023.98
2019-03-24T00:11:41.945Z,1024.01
2019-03-24T00:12:41.857Z,1023.99
2019-03-24T00:13:41.797Z,1023.95
2019-03-24T00:14:41.696Z,1023.95
2019-03-24T00:15:41.619Z,1023.98
2019-03-24T00:16:41.533Z,1023.97
2019-03-24T00:17:41.446Z,1023.97
2019-03-24T00:18:41.360Z,1024.00
2019-03-24T00:19:41.286Z,1023.91
2019-03-24T00:20:41.202Z,1023.95
2019-03-24T00:21:41.107Z,1023.99
2019-03-24T00:22:41.034Z,1023.97
2019-03-24T00:23:40.946Z,1024.00
2019-03-24T00:24:40.858Z,1024.00
2019-03-24T00:25:40.783Z,1024.03
2019-03-24T00:26:40.697Z,1024.02
2019-03-24T00:27:40.621Z,1024.03
2019-03-24T00:28:40.536Z,1024.04
2019-03-24T00:29:40.447Z,1024.08
2019-03-24T00:30:40.373Z,1024.06
2019-03-24T00:31:40.285Z,1024.07
2019-03-24T00:32:40.197Z,1024.06
2019-03-24T00:33:40.121Z,1024.02
2019-03-24T00:34:40.022Z,1024.03
2019-03-24T00:35:39.947Z,1024.03
2019-03-24T00:36:39.860Z,1024.04
2019-03-24T00:37:39.774Z,1024.01
2019-03-24T00:38:39.699Z,1024.00
2019-03-24T00:39:39.610Z,1023.98
2019-03-24T00:40:39.525Z,1024.01
2019-03-24T00:41:39.449Z,1023.98
2019-03-24T00:42:39.360Z,1024.03
2019-03-24T00:43:39.273Z,1024.00
2019-03-24T00:44:39.199Z,1024.03
2019-03-24T00:45:39.111Z,1024.02
2019-03-24T00:46:39.023Z,1024.04
2019-03-24T00:47:38.937Z,1023.98
2019-03-24T00:48:38.873Z,1023.97
2019-03-24T00:49:38.778Z,1023.96
2019-03-24T00:50:38.686Z,1023.94
2019-03-24T00:51:38.611Z,1023.96
2019-03-24T00:52:38.526Z,1023.91
2019-03-24T00:53:38.437Z,1023.93
2019-03-24T00:54:38.364Z,1023.95
2019-03-24T00:55:38.274Z,1023.91
2019-03-24T00:56:38.188Z,1023.93
2019-03-24T00:57:38.113Z,1023.96
2019-03-24T00:58:38.025Z,1023.94
2019-03-24T00:59:37.937Z,1023.93
2019-03-24T01:00:37.862Z,1023.94
2019-03-24T01:01:37.775Z,1023.92
2019-03-24T01:02:37.701Z,1023.96
2019-03-24T01:03:37.603Z,1023.98
2019-03-24T01:04:37.526Z,1024.03
2019-03-24T01:05:37.438Z,1024.01
2019-03-24T01:06:37.366Z,1023.99
2019-03-24T01:07:37.276Z,1023.94
2019-03-24T01:08:37.202Z,1023.96
2019-03-24T01:09:37.103Z,1023.99
2019-03-24T01:10:37.020Z,1023.97
2019-03-24T01:11:36.939Z,1023.97
2019-03-24T01:12:36.851Z,1023.96
2019-03-24T01:13:36.764Z,1023.95
2019-03-24T01:14:36.705Z,1023.93
2019-03-24T01:15:47.122Z,1023.90
2019-03-24T01:16:36.514Z,1023.87
2019-03-24T01:17:36.440Z,1023.90
2019-03-24T01:18:36.352Z,1023.86
2019-03-24T01:19:36.264Z,1023.88
2019-03-24T01:20:36.202Z,1023.84
2019-03-24T01:21:36.108Z,1023.88
2019-03-24T01:22:36.014Z,1023.83
2019-03-24T01:23:35.939Z,1023.85
2019-03-24T01:24:35.853Z,1023.81
2019-03-24T01:25:35.764Z,1023.83
2019-03-24T01:26:35.679Z,1023.83
2019-03-24T01:27:35.604Z,1023.83
2019-03-24T01:28:35.516Z,1023.77
2019-03-24T01:29:35.429Z,1023.77
2019-03-24T01:30:35.354Z,1023.78
2019-03-24T01:31:35.267Z,1023.81
2019-03-24T01:32:35.183Z,1023.82
2019-03-24T01:33:35.103Z,1023.82
2019-03-24T01:34:35.016Z,1023.81
2019-03-24T01:35:34.929Z,1023.79
2019-03-24T01:36:34.854Z,1023.78
2019-03-24T01:37:34.766Z,1023.78
2019-03-24T01:38:34.682Z,1023.77
2019-03-24T01:39:34.594Z,1023.74
2019-03-24T01:40:34.520Z,1023.72
2019-03-24T01:41:34.430Z,1023.74
2019-03-24T01:42:34.342Z,1023.71
2019-03-24T01:43:34.267Z,1023.70
2019-03-24T01:44:34.182Z,1023.66
2019-03-24T01:45:34.095Z,1023.69
2019-03-24T01:46:34.016Z,1023.67
2019-03-24T01:47:33.930Z,1023.68
2019-03-24T01:48:33.842Z,1023.70
2019-03-24T01:49:33.755Z,1023.67
2019-03-24T01:50:33.686Z,1023.72
2019-03-24T01:51:33.593Z,1023.75
2019-03-24T01:52:33.507Z,1023.72
2019-03-24T01:53:33.430Z,1023.70
2019-03-24T01:54:33.344Z,1023.74
2019-03-24T01:55:33.257Z,1023.74
2019-03-24T01:56:33.181Z,1023.71
2019-03-24T01:57:33.093Z,1023.74
2019-03-24T01:58:33.006Z,1023.69
2019-03-24T01:59:32.921Z,1023.70
2019-03-24T02:00:32.843Z,1023.68
2019-03-24T02:01:32.757Z,1023.68
2019-03-24T02:02:32.668Z,1023.69
2019-03-24T02:03:32.594Z,1023.67
2019-03-24T02:04:32.506Z,1023.68
2019-03-24T02:05:32.421Z,1023.66
2019-03-24T02:06:32.332Z,1023.65
2019-03-24T02:07:32.258Z,1023.63
2019-03-24T02:08:32.171Z,1023.67
2019-03-24T02:09:32.083Z,1023.64
2019-03-24T02:10:32.009Z,1023.60
2019-03-24T02:11:31.932Z,1023.62
2019-03-24T02:12:31.833Z,1023.59
2019-03-24T02:13:31.746Z,1023.55
2019-03-24T02:14:31.671Z,1023.56
2019-03-24T02:15:31.584Z,1023.57
2019-03-24T02:16:31.495Z,1023.54
2019-03-24T02:17:31.421Z,1023.52
2019-03-24T02:18:31.333Z,1023.56
2019-03-24T02:19:31.245Z,1023.53
2019-03-24T02:20:31.159Z,1023.54
2019-03-24T02:21:31.086Z,1023.55
2019-03-24T02:22:30.996Z,1023.54
2019-03-24T02:23:30.911Z,1023.54
2019-03-24T02:24:30.823Z,1023.56
2019-03-24T02:25:30.761Z,1023.54
2019-03-24T02:26:30.660Z,1023.52
2019-03-24T02:27:30.571Z,1023.52
2019-03-24T02:28:30.496Z,1023.53
2019-03-24T02:29:30.410Z,1023.51
2019-03-24T02:30:30.335Z,1023.55
2019-03-24T02:31:30.249Z,1023.49
2019-03-24T02:32:30.161Z,1023.51
2019-03-24T02:33:30.073Z,1023.49
2019-03-24T02:34:29.989Z,1023.48
2019-03-24T02:35:29.901Z,1023.46
2019-03-24T02:36:29.827Z,1023.48
2019-03-24T02:37:29.735Z,1023.44
2019-03-24T02:38:29.648Z,1023.47
2019-03-24T02:39:29.582Z,1023.44
2019-03-24T02:40:29.487Z,1023.46
2019-03-24T02:41:29.412Z,1023.44
2019-03-24T02:42:29.321Z,1023.43
2019-03-24T02:43:29.237Z,1023.44
2019-03-24T02:44:29.151Z,1023.45
2019-03-24T02:45:29.061Z,1023.48
2019-03-24T02:46:28.975Z,1023.44
2019-03-24T02:47:28.899Z,1023.48
2019-03-24T02:48:28.812Z,1023.47
2019-03-24T02:49:28.724Z,1023.44
2019-03-24T02:50:28.638Z,1023.45
2019-03-24T02:51:28.565Z,1023.45
2019-03-24T02:52:28.476Z,1023.42
2019-03-24T02:53:28.393Z,1023.40
2019-03-24T02:54:28.303Z,1023.32
2019-03-24T02:55:28.237Z,1023.39
2019-03-24T02:56:28.150Z,1023.37
2019-03-24T02:57:28.050Z,1023.35
2019-03-24T02:58:27.964Z,1023.35
2019-03-24T02:59:27.887Z,1023.34
2019-03-24T03:00:27.800Z,1023.37
2019-03-24T03:01:27.715Z,1023.33
2019-03-24T03:02:27.629Z,1023.34
2019-03-24T03:03:27.556Z,1023.35
2019-03-24T03:04:27.463Z,1023.35
2019-03-24T03:05:27.383Z,1023.39
2019-03-24T03:06:27.302Z,1023.36
2019-03-24T03:07:27.228Z,1023.39
2019-03-24T03:08:27.132Z,1023.39
2019-03-24T03:09:27.044Z,1023.42
2019-03-24T03:10:26.953Z,1023.38
2019-03-24T03:11:26.879Z,1023.40
2019-03-24T03:12:26.789Z,1023.36
2019-03-24T03:13:26.701Z,1023.36
2019-03-24T03:14:26.624Z,1023.37
2019-03-24T03:15:26.539Z,1023.42
2019-03-24T03:16:37.804Z,1023.41
2019-03-24T03:17:26.365Z,1023.41
2019-03-24T03:18:26.279Z,1023.39
2019-03-24T03:19:26.193Z,1023.38
2019-03-24T03:20:26.123Z,1023.39
2019-03-24T03:21:26.034Z,1023.40
2019-03-24T03:22:25.942Z,1023.33
2019-03-24T03:23:25.854Z,1023.39
2019-03-24T03:24:25.786Z,1023.35
2019-03-24T03:25:25.698Z,1023.34
2019-03-24T03:26:25.604Z,1023.37
2019-03-24T03:27:25.517Z,1023.36
2019-03-24T03:28:25.441Z,1023.40
2019-03-24T03:29:25.354Z,1023.39
2019-03-24T03:30:25.269Z,1023.38
2019-03-24T03:31:25.182Z,1023.35
2019-03-24T03:32:25.093Z,1023.31
2019-03-24T03:33:25.019Z,1023.32
2019-03-24T03:34:24.930Z,1023.30
2019-03-24T03:35:24.876Z,1023.27
2019-03-24T03:36:24.757Z,1023.31
2019-03-24T03:37:24.690Z,1023.31
2019-03-24T03:38:24.601Z,1023.32
2019-03-24T03:39:24.505Z,1023.29
2019-03-24T03:40:24.428Z,1023.31
2019-03-24T03:41:24.331Z,1023.33
2019-03-24T03:42:24.270Z,1023.36
2019-03-24T03:43:24.169Z,1023.34
2019-03-24T03:44:24.086Z,1023.39
2019-03-24T03:45:24.002Z,1023.38
2019-03-24T03:46:23.908Z,1023.39
2019-03-24T03:47:23.842Z,1023.38
2019-03-24T03:48:23.746Z,1023.38
2019-03-24T03:49:23.661Z,1023.36
2019-03-24T03:50:23.577Z,1023.31
2019-03-24T03:51:23.504Z,1023.35
2019-03-24T03:52:23.414Z,1023.29
2019-03-24T03:53:23.321Z,1023.31
2019-03-24T03:54:23.240Z,1023.31
2019-03-24T03:55:23.145Z,1023.27
2019-03-24T03:56:23.069Z,1023.31
2019-03-24T03:57:22.984Z,1023.27
2019-03-24T03:58:22.901Z,1023.25
2019-03-24T03:59:22.808Z,1023.24
2019-03-24T04:00:22.735Z,1023.23
2019-03-24T04:01:22.645Z,1023.18
2019-03-24T04:02:22.557Z,1023.18
2019-03-24T04:03:22.470Z,1023.19
2019-03-24T04:04:22.384Z,1023.15
2019-03-24T04:05:22.308Z,1023.17
2019-03-24T04:06:22.230Z,1023.18
2019-03-24T04:07:22.134Z,1023.15
2019-03-24T04:08:22.062Z,1023.12
2019-03-24T04:09:21.965Z,1023.11
2019-03-24T04:10:21.883Z,1023.12
2019-03-24T04:11:21.796Z,1023.10
2019-03-24T04:12:21.709Z,1023.11
2019-03-24T04:13:21.630Z,1023.09
2019-03-24T04:14:21.538Z,1023.10
2019-03-24T04:15:21.459Z,1023.06
2019-03-24T04:16:21.375Z,1023.05
2019-03-24T04:17:21.285Z,1023.03
2019-03-24T04:18:21.197Z,1023.07
2019-03-24T04:19:21.109Z,1023.04
2019-03-24T04:20:21.071Z,1023.04
2019-03-24T04:21:20.950Z,1023.02
2019-03-24T04:22:20.860Z,1023.02
2019-03-24T04:23:20.778Z,1023.00
2019-03-24T04:24:20.688Z,1023.00
2019-03-24T04:25:20.610Z,1023.01
2019-03-24T04:26:20.524Z,1022.97
2019-03-24T04:27:20.435Z,1022.98
2019-03-24T04:28:20.350Z,1023.04
2019-03-24T04:29:20.261Z,1023.06
2019-03-24T04:30:20.187Z,1023.05
2019-03-24T04:31:20.100Z,1023.05
2019-03-24T04:32:20.012Z,1023.08
2019-03-24T04:33:19.926Z,1023.06
2019-03-24T04:34:19.837Z,1023.09
2019-03-24T04:35:19.779Z,1023.10
2019-03-24T04:36:19.675Z,1023.07
2019-03-24T04:37:19.586Z,1023.06
2019-03-24T04:38:19.499Z,1023.07
2019-03-24T04:39:19.412Z,1023.06
2019-03-24T04:40:19.337Z,1023.07
2019-03-24T04:41:19.250Z,1023.06
2019-03-24T04:42:19.175Z,1023.05
2019-03-24T04:43:19.082Z,1023.06
2019-03-24T04:44:18.986Z,1023.08
2019-03-24T04:45:18.900Z,1023.06
2019-03-24T04:46:18.825Z,1023.06
2019-03-24T04:47:18.743Z,1023.06
2019-03-24T04:48:18.649Z,1023.05
2019-03-24T04:49:18.575Z,1023.03
2019-03-24T04:50:18.478Z,1023.05
2019-03-24T04:51:18.400Z,1023.04
2019-03-24T04:52:18.312Z,1023.03
2019-03-24T04:53:20.536Z,1023.00
2019-03-24T04:54:18.139Z,1023.02
2019-03-24T04:55:18.053Z,1023.04
2019-03-24T04:56:17.976Z,1022.95
2019-03-24T04:57:17.890Z,1022.97
2019-03-24T04:58:17.803Z,1022.93
2019-03-24T04:59:17.713Z,1022.92
2019-03-24T05:00:17.628Z,1022.97
2019-03-24T05:01:17.540Z,1022.95
2019-03-24T05:02:17.473Z,1022.92
2019-03-24T05:03:17.378Z,1022.94
2019-03-24T05:04:17.289Z,1022.89
2019-03-24T05:05:17.205Z,1022.92
2019-03-24T05:06:17.127Z,1022.85
2019-03-24T05:07:17.039Z,1022.85
2019-03-24T05:08:16.961Z,1022.87
2019-03-24T05:09:16.872Z,1022.86
2019-03-24T05:10:16.777Z,1022.88
2019-03-24T05:11:16.695Z,1022.89
2019-03-24T05:12:16.614Z,1022.90
2019-03-24T05:13:16.528Z,1022.93
2019-03-24T05:14:16.440Z,1022.94
2019-03-24T05:15:16.356Z,1022.94
2019-03-24T05:16:16.266Z,1022.90
2019-03-24T05:17:26.339Z,1022.95
2019-03-24T05:18:16.104Z,1022.91
2019-03-24T05:19:16.016Z,1022.94
2019-03-24T05:20:15.929Z,1022.93
2019-03-24T05:21:15.853Z,1022.93
2019-03-24T05:22:15.765Z,1022.93
2019-03-24T05:23:15.678Z,1022.96
2019-03-24T05:24:15.591Z,1022.95
2019-03-24T05:25:15.521Z,1022.97
2019-03-24T05:26:15.418Z,1022.96
2019-03-24T05:27:15.342Z,1022.95
2019-03-24T05:28:15.255Z,1022.95
2019-03-24T05:29:15.166Z,1022.95
2019-03-24T05:30:15.082Z,1022.97
2019-03-24T05:31:14.992Z,1022.97
2019-03-24T05:32:14.917Z,1022.94
2019-03-24T05:33:14.830Z,1022.96
2019-03-24T05:34:14.742Z,1022.92
2019-03-24T05:35:14.656Z,1022.93
2019-03-24T05:36:14.570Z,1022.87
2019-03-24T05:37:14.506Z,1022.90
2019-03-24T05:38:14.406Z,1022.87
2019-03-24T05:39:14.318Z,1022.92
2019-03-24T05:40:14.238Z,1022.90
2019-03-24T05:41:14.144Z,1022.89
2019-03-24T05:42:14.069Z,1022.90
2019-03-24T05:43:13.982Z,1022.91
2019-03-24T05:44:13.893Z,1022.88
2019-03-24T05:45:13.810Z,1022.86
2019-03-24T05:46:13.720Z,1022.85
2019-03-24T05:47:13.644Z,1022.88
2019-03-24T05:48:13.556Z,1022.88
2019-03-24T05:49:13.469Z,1022.86
2019-03-24T05:50:13.382Z,1022.87
2019-03-24T05:51:13.296Z,1022.83
2019-03-24T05:52:13.225Z,1022.86
2019-03-24T05:53:13.133Z,1022.87
2019-03-24T05:54:13.045Z,1022.87
2019-03-24T05:55:12.957Z,1022.91
2019-03-24T05:56:12.885Z,1022.87
2019-03-24T05:57:12.801Z,1022.93
2019-03-24T05:58:12.709Z,1022.92
2019-03-24T05:59:12.619Z,1022.94
2019-03-24T06:00:12.545Z,1022.95
2019-03-24T06:01:12.458Z,1022.98
2019-03-24T06:02:12.370Z,1022.97
2019-03-24T06:03:12.286Z,1022.95
2019-03-24T06:04:12.196Z,1022.92
2019-03-24T06:05:12.120Z,1022.96
2019-03-24T06:06:12.035Z,1022.92
2019-03-24T06:07:11.950Z,1022.93
2019-03-24T06:08:11.859Z,1022.88
2019-03-24T06:09:11.771Z,1022.91
2019-03-24T06:10:11.696Z,1022.91
2019-03-24T06:11:11.610Z,1022.88
2019-03-24T06:12:11.521Z,1022.90
2019-03-24T06:13:11.435Z,1022.85
2019-03-24T06:14:11.359Z,1022.86
2019-03-24T06:15:11.274Z,1022.86
2019-03-24T06:16:11.185Z,1022.88
2019-03-24T06:17:11.097Z,1022.89
2019-03-24T06:18:11.011Z,1022.85
2019-03-24T06:19:10.936Z,1022.83
2019-03-24T06:20:10.848Z,1022.80
2019-03-24T06:21:10.761Z,1022.81
2019-03-24T06:22:10.673Z,1022.80
2019-03-24T06:23:10.598Z,1022.84
2019-03-24T06:24:10.514Z,1022.79
2019-03-24T06:25:10.437Z,1022.77
2019-03-24T06:26:10.338Z,1022.76
2019-03-24T06:27:10.261Z,1022.75
2019-03-24T06:28:10.173Z,1022.74
2019-03-24T06:29:10.087Z,1022.71
2019-03-24T06:30:10.011Z,1022.70
2019-03-24T06:31:09.928Z,1022.71
2019-03-24T06:32:09.842Z,1022.74
2019-03-24T06:33:09.749Z,1022.78
2019-03-24T06:34:09.663Z,1022.81
2019-03-24T06:35:09.589Z,1022.79
2019-03-24T06:36:09.499Z,1022.76
2019-03-24T06:37:09.414Z,1022.77
2019-03-24T06:38:09.325Z,1022.79
2019-03-24T06:39:09.263Z,1022.78
2019-03-24T06:40:09.163Z,1022.76
2019-03-24T06:41:09.077Z,1022.74
2019-03-24T06:42:09.007Z,1022.76
2019-03-24T06:43:08.914Z,1022.79
2019-03-24T06:44:08.838Z,1022.81
2019-03-24T06:45:08.750Z,1022.79
2019-03-24T06:46:08.664Z,1022.79
2019-03-24T06:47:08.576Z,1022.76
2019-03-24T06:48:08.501Z,1022.76
2019-03-24T06:49:08.417Z,1022.79
2019-03-24T06:50:08.326Z,1022.79
2019-03-24T06:51:08.244Z,1022.79
2019-03-24T06:52:08.164Z,1022.84
2019-03-24T06:53:08.078Z,1022.78
2019-03-24T06:54:08.001Z,1022.85
2019-03-24T06:55:07.920Z,1022.84
2019-03-24T06:56:07.843Z,1022.83
2019-03-24T06:57:07.751Z,1022.77
2019-03-24T06:58:07.669Z,1022.78
2019-03-24T06:59:07.577Z,1022.79
2019-03-24T07:00:07.502Z,1022.80
2019-03-24T07:01:07.415Z,1022.79
2019-03-24T07:02:07.328Z,1022.83
2019-03-24T07:03:07.252Z,1022.82
2019-03-24T07:04:07.166Z,1022.81
2019-03-24T07:05:07.093Z,1022.80
2019-03-24T07:06:07.003Z,1022.76
2019-03-24T07:07:06.929Z,1022.81
2019-03-24T07:08:06.841Z,1022.78
2019-03-24T07:09:06.762Z,1022.85
2019-03-24T07:10:06.691Z,1022.79
2019-03-24T07:11:12.338Z,1022.76
2019-03-24T07:12:06.518Z,1022.75
2019-03-24T07:13:06.428Z,1022.73
2019-03-24T07:14:06.361Z,1022.75
2019-03-24T07:15:06.267Z,1022.74
2019-03-24T07:16:06.179Z,1022.78
2019-03-24T07:17:06.104Z,1022.78
2019-03-24T07:18:08.673Z,1022.78
2019-03-24T07:19:05.942Z,1022.78
2019-03-24T07:20:05.854Z,1022.83
2019-03-24T07:21:05.778Z,1022.79
2019-03-24T07:22:07.283Z,1022.79
2019-03-24T07:23:05.620Z,1022.80
2019-03-24T07:24:05.530Z,1022.76
2019-03-24T07:25:05.446Z,1022.76
2019-03-24T07:26:05.368Z,1022.78
2019-03-24T07:27:05.280Z,1022.79
2019-03-24T07:28:05.217Z,1022.78
2019-03-24T07:29:05.118Z,1022.80
2019-03-24T07:30:05.043Z,1022.78
2019-03-24T07:31:04.958Z,1022.75
2019-03-24T07:32:04.941Z,1022.79
2019-03-24T07:33:04.795Z,1022.77
2019-03-24T07:34:04.705Z,1022.74
2019-03-24T07:35:04.631Z,1022.74
2019-03-24T07:36:04.544Z,1022.72
2019-03-24T07:37:04.471Z,1022.75
2019-03-24T07:38:04.392Z,1022.73
2019-03-24T07:39:04.307Z,1022.75
2019-03-24T07:40:04.220Z,1022.77
2019-03-24T07:41:04.132Z,1022.70
2019-03-24T07:42:05.538Z,1022.69
2019-03-24T07:43:03.970Z,1022.69
2019-03-24T07:44:03.902Z,1022.67
2019-03-24T07:45:03.807Z,1022.67
2019-03-24T07:46:03.731Z,1022.67
2019-03-24T07:47:03.645Z,1022.65
2019-03-24T07:48:03.570Z,1022.65
2019-03-24T07:49:03.489Z,1022.71
2019-03-24T07:50:03.399Z,1022.68
2019-03-24T07:51:03.321Z,1022.73
2019-03-24T07:52:03.234Z,1022.74
2019-03-24T07:53:03.159Z,1022.74
2019-03-24T07:54:03.072Z,1022.78
2019-03-24T07:55:02.997Z,1022.77
2019-03-24T07:56:02.909Z,1022.79
2019-03-24T07:57:02.834Z,1022.76
2019-03-24T07:58:02.760Z,1022.78
2019-03-24T07:59:02.673Z,1022.74
2019-03-24T08:00:02.585Z,1022.76
2019-03-24T08:01:02.509Z,1022.79
2019-03-24T08:02:02.434Z,1022.78
2019-03-24T08:03:02.350Z,1022.75
2019-03-24T08:04:02.285Z,1022.79
2019-03-24T08:05:02.185Z,1022.79
2019-03-24T08:06:02.110Z,1022.84
2019-03-24T08:07:02.024Z,1022.80
2019-03-24T08:08:01.950Z,1022.83
2019-03-24T08:09:01.873Z,1022.83
2019-03-24T08:10:01.785Z,1022.83
2019-03-24T08:11:01.710Z,1022.78
2019-03-24T08:12:01.649Z,1022.78
2019-03-24T08:13:01.550Z,1022.79
2019-03-24T08:14:01.478Z,1022.78
2019-03-24T08:15:01.401Z,1022.76
2019-03-24T08:16:01.311Z,1022.78
2019-03-24T08:17:01.236Z,1022.73
2019-03-24T08:18:01.160Z,1022.74
2019-03-24T08:19:01.074Z,1022.72
2019-03-24T08:20:01.005Z,1022.75
2019-03-24T08:21:00.925Z,1022.74
2019-03-24T08:22:00.850Z,1022.71
2019-03-24T08:23:00.761Z,1022.71
2019-03-24T08:24:00.687Z,1022.69
2019-03-24T08:25:00.615Z,1022.70
2019-03-24T08:26:00.526Z,1022.67
2019-03-24T08:27:00.450Z,1022.67
2019-03-24T08:28:00.377Z,1022.65
2019-03-24T08:29:00.300Z,1022.69
2019-03-24T08:30:00.322Z,1022.66
2019-03-24T08:31:00.138Z,1022.62
2019-03-24T08:32:00.062Z,1022.55
2019-03-24T08:32:59.988Z,1022.58
2019-03-24T08:33:59.901Z,1022.56
2019-03-24T08:34:59.826Z,1022.48
2019-03-24T08:35:59.752Z,1022.45
2019-03-24T08:36:59.675Z,1022.39
2019-03-24T08:37:59.588Z,1022.36
2019-03-24T08:38:59.513Z,1022.35
2019-03-24T08:39:59.438Z,1022.31
2019-03-24T08:40:59.351Z,1022.30
2019-03-24T08:41:59.276Z,1022.29
2019-03-24T08:42:59.188Z,1022.29
2019-03-24T08:43:59.114Z,1022.26
2019-03-24T08:44:59.042Z,1022.23
2019-03-24T08:45:58.953Z,1022.19
2019-03-24T08:46:58.907Z,1022.22
2019-03-24T08:47:58.790Z,1022.23
2019-03-24T08:48:58.728Z,1022.20
2019-03-24T08:49:58.639Z,1022.18
2019-03-24T08:50:58.557Z,1022.18
2019-03-24T08:51:58.478Z,1022.17
2019-03-24T08:52:58.392Z,1022.20
2019-03-24T08:53:58.315Z,1022.19
2019-03-24T08:54:59.844Z,1022.18
2019-03-24T08:55:58.161Z,1022.21
2019-03-24T08:56:58.125Z,1022.14
2019-03-24T08:57:57.991Z,1022.18
2019-03-24T08:58:57.917Z,1022.16
2019-03-24T08:59:57.855Z,1022.14
2019-03-24T09:00:57.753Z,1022.10
2019-03-24T09:01:57.679Z,1022.14
2019-03-24T09:02:57.591Z,1022.12
2019-03-24T09:03:57.520Z,1022.12
2019-03-24T09:04:57.443Z,1022.05
2019-03-24T09:05:57.356Z,1022.02
2019-03-24T09:06:57.279Z,1022.01
2019-03-24T09:07:57.206Z,1021.94
2019-03-24T09:08:57.116Z,1021.94
2019-03-24T09:09:57.043Z,1021.92
2019-03-24T09:10:56.958Z,1021.90
2019-03-24T09:11:56.879Z,1021.88
2019-03-24T09:12:56.810Z,1021.86
2019-03-24T09:13:56.717Z,1021.84
2019-03-24T09:14:56.641Z,1021.83
2019-03-24T09:15:56.567Z,1021.82
2019-03-24T09:16:56.480Z,1021.81
2019-03-24T09:17:56.406Z,1021.84
2019-03-24T09:18:56.336Z,1021.79
2019-03-24T09:19:56.243Z,1021.79
2019-03-24T09:20:56.167Z,1021.74
2019-03-24T09:21:56.105Z,1021.74
2019-03-24T09:22:56.008Z,1021.78
2019-03-24T09:23:55.944Z,1021.75
2019-03-24T09:24:55.858Z,1021.75
2019-03-24T09:25:55.768Z,1021.71
2019-03-24T09:26:55.695Z,1021.74
2019-03-24T09:27:55.619Z,1021.71
2019-03-24T09:28:55.532Z,1021.70
2019-03-24T09:29:55.463Z,1021.70
2019-03-24T09:30:55.382Z,1021.71
2019-03-24T09:31:55.294Z,1021.70
2019-03-24T09:32:55.219Z,1021.67
2019-03-24T09:33:55.147Z,1021.63
2019-03-24T09:34:55.059Z,1021.61
2019-03-24T09:35:54.982Z,1021.60
2019-03-24T09:36:54.895Z,1021.59
2019-03-24T09:37:54.832Z,1021.63
2019-03-24T09:38:54.745Z,1021.58
2019-03-24T09:39:54.658Z,1021.58
2019-03-24T09:40:54.582Z,1021.62
2019-03-24T09:41:54.510Z,1021.60
2019-03-24T09:42:54.420Z,1021.57
2019-03-24T09:43:54.345Z,1021.52
2019-03-24T09:44:54.261Z,1021.50
2019-03-24T09:45:56.129Z,1021.46
2019-03-24T09:46:54.110Z,1021.47
2019-03-24T09:47:54.021Z,1021.47
2019-03-24T09:49:02.715Z,1021.46
2019-03-24T09:49:53.884Z,1021.46
2019-03-24T09:50:53.784Z,1021.43
2019-03-24T09:51:53.714Z,1021.48
2019-03-24T09:52:53.623Z,1021.45
2019-03-24T09:53:53.546Z,1021.47
2019-03-24T09:54:53.473Z,1021.46
2019-03-24T09:55:53.384Z,1021.46
2019-03-24T09:56:53.310Z,1021.42
2019-03-24T09:57:53.234Z,1021.43
2019-03-24T09:58:53.147Z,1021.43
2019-03-24T09:59:53.072Z,1021.40
2019-03-24T10:00:52.985Z,1021.40
2019-03-24T10:01:52.911Z,1021.41
2019-03-24T10:02:52.835Z,1021.37
2019-03-24T10:03:52.748Z,1021.39
2019-03-24T10:04:54.805Z,1021.34
2019-03-24T10:05:52.586Z,1021.37
2019-03-24T10:06:52.512Z,1021.37
2019-03-24T10:07:52.424Z,1021.36
2019-03-24T10:08:52.347Z,1021.33
2019-03-24T10:09:52.273Z,1021.34
2019-03-24T10:10:52.186Z,1021.31
2019-03-24T10:11:52.112Z,1021.29
2019-03-24T10:12:52.023Z,1021.27
2019-03-24T10:13:51.948Z,1021.29
2019-03-24T10:14:51.873Z,1021.28
2019-03-24T10:15:51.787Z,1021.26
2019-03-24T10:16:51.711Z,1021.21
2019-03-24T10:17:51.649Z,1021.17
2019-03-24T10:18:51.537Z,1021.16
2019-03-24T10:19:51.463Z,1021.14
2019-03-24T10:20:51.375Z,1021.09
2019-03-24T10:21:51.312Z,1021.09
2019-03-24T10:22:51.225Z,1021.06
2019-03-24T10:23:51.138Z,1021.07
2019-03-24T10:24:51.070Z,1020.99
2019-03-24T10:25:50.975Z,1021.04
2019-03-24T10:26:50.913Z,1021.02
2019-03-24T10:27:50.815Z,1021.00
2019-03-24T10:28:50.738Z,1020.98
2019-03-24T10:29:50.651Z,1020.93
2019-03-24T10:30:50.576Z,1020.94
2019-03-24T10:31:50.514Z,1020.91
2019-03-24T10:32:50.414Z,1020.90
2019-03-24T10:33:50.339Z,1020.93
2019-03-24T10:34:50.250Z,1020.91
2019-03-24T10:35:50.176Z,1020.93
2019-03-24T10:36:50.089Z,1020.90
2019-03-24T10:37:50.016Z,1020.92
2019-03-24T10:38:49.939Z,1020.91
2019-03-24T10:39:49.852Z,1020.95
2019-03-24T10:40:49.776Z,1020.90
2019-03-24T10:41:49.690Z,1020.92
2019-03-24T10:42:49.614Z,1020.88
2019-03-24T10:43:49.540Z,1020.93
2019-03-24T10:44:49.451Z,1020.92
2019-03-24T10:45:49.377Z,1020.91
2019-03-24T10:46:49.292Z,1020.91
2019-03-24T10:47:49.216Z,1020.89
2019-03-24T10:48:49.142Z,1020.85
2019-03-24T10:49:49.065Z,1020.87
2019-03-24T10:50:48.982Z,1020.84
2019-03-24T10:51:48.903Z,1020.83
2019-03-24T10:52:48.817Z,1020.81
2019-03-24T10:53:48.742Z,1020.79
2019-03-24T10:54:48.666Z,1020.80
2019-03-24T10:55:48.579Z,1020.73
2019-03-24T10:56:48.503Z,1020.75
2019-03-24T10:57:48.417Z,1020.74
2019-03-24T10:58:48.342Z,1020.72
2019-03-24T10:59:48.270Z,1020.71
2019-03-24T11:00:48.182Z,1020.69
2019-03-24T11:01:48.105Z,1020.67
2019-03-24T11:02:48.034Z,1020.66
2019-03-24T11:03:47.944Z,1020.67
2019-03-24T11:04:47.867Z,1020.63
2019-03-24T11:05:47.792Z,1020.58
2019-03-24T11:06:47.705Z,1020.58
2019-03-24T11:07:47.630Z,1020.55
2019-03-24T11:08:47.555Z,1020.51
2019-03-24T11:09:47.468Z,1020.51
2019-03-24T11:10:47.396Z,1020.46
2019-03-24T11:11:47.318Z,1020.43
2019-03-24T11:12:47.230Z,1020.44
2019-03-24T11:13:47.157Z,1020.43
2019-03-24T11:14:47.085Z,1020.44
2019-03-24T11:15:46.994Z,1020.42
2019-03-24T11:16:46.923Z,1020.40
2019-03-24T11:17:46.844Z,1020.36
2019-03-24T11:18:46.756Z,1020.41
2019-03-24T11:19:46.694Z,1020.34
2019-03-24T11:20:46.606Z,1020.34
2019-03-24T11:21:46.519Z,1020.33
2019-03-24T11:22:46.446Z,1020.32
2019-03-24T11:23:46.370Z,1020.34
2019-03-24T11:24:46.283Z,1020.31
2019-03-24T11:25:46.206Z,1020.28
2019-03-24T11:26:46.135Z,1020.24
2019-03-24T11:27:46.059Z,1020.25
2019-03-24T11:28:45.974Z,1020.23
2019-03-24T11:29:45.896Z,1020.15
2019-03-24T11:30:45.821Z,1020.15
2019-03-24T11:31:45.746Z,1020.16
2019-03-24T11:32:45.657Z,1020.18
2019-03-24T11:33:45.584Z,1020.15
2019-03-24T11:34:45.509Z,1020.13
2019-03-24T11:35:45.446Z,1020.11
2019-03-24T11:36:45.346Z,1020.13
2019-03-24T11:37:45.276Z,1020.14
2019-03-24T11:38:45.196Z,1020.15
2019-03-24T11:39:45.109Z,1020.12
2019-03-24T11:40:45.034Z,1020.10
2019-03-24T11:41:44.958Z,1020.17
2019-03-24T11:42:44.886Z,1020.19
2019-03-24T11:43:44.799Z,1020.12
2019-03-24T11:44:44.721Z,1020.10
2019-03-24T11:45:44.646Z,1020.08
2019-03-24T11:46:44.572Z,1020.12
2019-03-24T11:47:44.486Z,1020.06
2019-03-24T11:48:44.409Z,1020.10
2019-03-24T11:49:46.569Z,1020.09
2019-03-24T11:50:44.259Z,1020.07
2019-03-24T11:51:44.184Z,1020.09
2019-03-24T11:52:44.099Z,1020.17
2019-03-24T11:53:44.024Z,1020.05
2019-03-24T11:54:43.948Z,1020.00
2019-03-24T11:55:43.877Z,1019.99
2019-03-24T11:56:43.799Z,1019.92
2019-03-24T11:57:43.711Z,1020.01
2019-03-24T11:58:43.666Z,1019.99
2019-03-24T11:59:43.561Z,1019.91
2019-03-24T12:00:43.485Z,1019.93
2019-03-24T12:01:43.411Z,1019.89
2019-03-24T12:02:43.324Z,1019.83
2019-03-24T12:03:43.254Z,1019.88
2019-03-24T12:04:43.174Z,1019.86